sensor_id;sensor_type;location;lat;lon;timestamp;P1;durP1;ratioP1;P2;durP2;ratioP2
30677;SDS011;17437;47.188;8.896;2023-05-21T00:00:06;23.12;;;18.30;;
30677;SDS011;17437;47.188;8.896;2023-05-21T00:02:40;19.60;;;15.50;;
30677;SDS011;17437;47.188;8.896;2023-05-21T00:05:12;17.73;;;15.08;;
30677;SDS011;17437;47.188;8.896;2023-05-21T00:07:45;18.42;;;16.40;;
30677;SDS011;17437;47.188;8.896;2023-05-21T00:10:17;21.23;;;15.28;;
30677;SDS011;17437;47.188;8.896;2023-05-21T00:12:49;19.12;;;15.60;;
30677;SDS011;17437;47.188;8.896;2023-05-21T00:15:20;23.02;;;16.02;;
30677;SDS011;17437;47.188;8.896;2023-05-21T00:17:52;19.82;;;16.55;;
30677;SDS011;17437;47.188;8.896;2023-05-21T00:20:23;23.67;;;15.23;;
30677;SDS011;17437;47.188;8.896;2023-05-21T00:22:58;17.42;;;14.35;;
30677;SDS011;17437;47.188;8.896;2023-05-21T00:25:30;17.40;;;14.05;;
30677;SDS011;17437;47.188;8.896;2023-05-21T00:28:03;17.65;;;14.75;;
30677;SDS011;17437;47.188;8.896;2023-05-21T00:30:35;19.25;;;15.78;;
30677;SDS011;17437;47.188;8.896;2023-05-21T00:33:07;25.32;;;17.67;;
30677;SDS011;17437;47.188;8.896;2023-05-21T00:35:41;25.75;;;17.98;;
30677;SDS011;17437;47.188;8.896;2023-05-21T00:38:12;24.32;;;18.60;;
30677;SDS011;17437;47.188;8.896;2023-05-21T00:40:45;21.15;;;17.55;;
30677;SDS011;17437;47.188;8.896;2023-05-21T00:43:17;23.00;;;19.45;;
30677;SDS011;17437;47.188;8.896;2023-05-21T00:45:50;25.27;;;17.80;;
30677;SDS011;17437;47.188;8.896;2023-05-21T00:48:23;22.50;;;17.60;;
30677;SDS011;17437;47.188;8.896;2023-05-21T00:50:56;26.97;;;18.20;;
30677;SDS011;17437;47.188;8.896;2023-05-21T00:53:27;23.67;;;19.20;;
30677;SDS011;17437;47.188;8.896;2023-05-21T00:56:01;24.95;;;20.02;;
30677;SDS011;17437;47.188;8.896;2023-05-21T00:58:33;24.90;;;19.40;;
30677;SDS011;17437;47.188;8.896;2023-05-21T01:01:06;27.15;;;20.48;;
30677;SDS011;17437;47.188;8.896;2023-05-21T01:03:40;26.30;;;19.85;;
30677;SDS011;17437;47.188;8.896;2023-05-21T01:06:12;27.60;;;19.40;;
30677;SDS011;17437;47.188;8.896;2023-05-21T01:08:44;28.60;;;21.65;;
30677;SDS011;17437;47.188;8.896;2023-05-21T01:11:16;29.23;;;22.42;;
30677;SDS011;17437;47.188;8.896;2023-05-21T01:13:49;28.05;;;19.52;;
30677;SDS011;17437;47.188;8.896;2023-05-21T01:16:21;33.15;;;25.08;;
30677;SDS011;17437;47.188;8.896;2023-05-21T01:18:52;27.20;;;21.80;;
30677;SDS011;17437;47.188;8.896;2023-05-21T01:21:26;29.72;;;24.00;;
30677;SDS011;17437;47.188;8.896;2023-05-21T01:23:59;26.23;;;20.68;;
30677;SDS011;17437;47.188;8.896;2023-05-21T01:26:33;22.82;;;20.08;;
30677;SDS011;17437;47.188;8.896;2023-05-21T01:29:07;31.68;;;22.30;;
30677;SDS011;17437;47.188;8.896;2023-05-21T01:31:44;31.02;;;24.05;;
30677;SDS011;17437;47.188;8.896;2023-05-21T01:34:17;27.85;;;22.60;;
30677;SDS011;17437;47.188;8.896;2023-05-21T01:36:52;38.10;;;25.65;;
30677;SDS011;17437;47.188;8.896;2023-05-21T01:39:27;30.08;;;23.73;;
30677;SDS011;17437;47.188;8.896;2023-05-21T01:42:01;29.92;;;22.15;;
30677;SDS011;17437;47.188;8.896;2023-05-21T01:44:35;24.15;;;19.37;;
30677;SDS011;17437;47.188;8.896;2023-05-21T01:47:08;24.18;;;19.32;;
30677;SDS011;17437;47.188;8.896;2023-05-21T01:49:40;32.67;;;24.70;;
30677;SDS011;17437;47.188;8.896;2023-05-21T01:52:13;29.57;;;23.10;;
30677;SDS011;17437;47.188;8.896;2023-05-21T01:54:45;28.47;;;21.45;;
30677;SDS011;17437;47.188;8.896;2023-05-21T01:57:17;27.17;;;21.87;;
30677;SDS011;17437;47.188;8.896;2023-05-21T01:59:49;28.67;;;21.95;;
30677;SDS011;17437;47.188;8.896;2023-05-21T02:02:22;26.50;;;20.15;;
30677;SDS011;17437;47.188;8.896;2023-05-21T02:04:53;26.23;;;21.82;;
30677;SDS011;17437;47.188;8.896;2023-05-21T02:07:25;22.58;;;19.25;;
30677;SDS011;17437;47.188;8.896;2023-05-21T02:09:57;24.98;;;19.02;;
30677;SDS011;17437;47.188;8.896;2023-05-21T02:12:28;23.65;;;18.40;;
30677;SDS011;17437;47.188;8.896;2023-05-21T02:15:00;29.30;;;20.82;;
30677;SDS011;17437;47.188;8.896;2023-05-21T02:17:33;29.65;;;23.27;;
30677;SDS011;17437;47.188;8.896;2023-05-21T02:20:07;27.07;;;20.15;;
30677;SDS011;17437;47.188;8.896;2023-05-21T02:22:41;23.73;;;19.77;;
30677;SDS011;17437;47.188;8.896;2023-05-21T02:25:14;30.68;;;22.87;;
30677;SDS011;17437;47.188;8.896;2023-05-21T02:27:47;23.47;;;19.45;;
30677;SDS011;17437;47.188;8.896;2023-05-21T02:30:21;25.23;;;19.57;;
30677;SDS011;17437;47.188;8.896;2023-05-21T02:32:53;30.23;;;24.57;;
30677;SDS011;17437;47.188;8.896;2023-05-21T02:35:27;27.90;;;22.42;;
30677;SDS011;17437;47.188;8.896;2023-05-21T02:37:58;27.70;;;22.13;;
30677;SDS011;17437;47.188;8.896;2023-05-21T02:40:31;35.98;;;22.95;;
30677;SDS011;17437;47.188;8.896;2023-05-21T02:43:02;28.65;;;22.05;;
30677;SDS011;17437;47.188;8.896;2023-05-21T02:45:34;25.57;;;19.23;;
30677;SDS011;17437;47.188;8.896;2023-05-21T02:48:06;22.30;;;18.80;;
30677;SDS011;17437;47.188;8.896;2023-05-21T02:50:38;19.02;;;15.88;;
30677;SDS011;17437;47.188;8.896;2023-05-21T02:53:09;20.82;;;16.40;;
30677;SDS011;17437;47.188;8.896;2023-05-21T02:55:41;19.62;;;15.20;;
30677;SDS011;17437;47.188;8.896;2023-05-21T02:58:12;17.23;;;14.65;;
30677;SDS011;17437;47.188;8.896;2023-05-21T03:00:44;19.15;;;15.75;;
30677;SDS011;17437;47.188;8.896;2023-05-21T03:03:16;18.57;;;14.78;;
30677;SDS011;17437;47.188;8.896;2023-05-21T03:05:47;18.62;;;14.80;;
30677;SDS011;17437;47.188;8.896;2023-05-21T03:08:19;21.20;;;14.95;;
30677;SDS011;17437;47.188;8.896;2023-05-21T03:10:50;17.02;;;14.20;;
30677;SDS011;17437;47.188;8.896;2023-05-21T03:13:23;21.55;;;16.97;;
30677;SDS011;17437;47.188;8.896;2023-05-21T03:15:54;17.98;;;13.98;;
30677;SDS011;17437;47.188;8.896;2023-05-21T03:18:26;18.42;;;15.05;;
30677;SDS011;17437;47.188;8.896;2023-05-21T03:20:57;19.17;;;15.28;;
30677;SDS011;17437;47.188;8.896;2023-05-21T03:23:29;22.25;;;16.70;;
30677;SDS011;17437;47.188;8.896;2023-05-21T03:26:01;19.37;;;15.80;;
30677;SDS011;17437;47.188;8.896;2023-05-21T03:28:33;22.93;;;19.67;;
30677;SDS011;17437;47.188;8.896;2023-05-21T03:31:05;21.73;;;15.78;;
30677;SDS011;17437;47.188;8.896;2023-05-21T03:33:36;17.82;;;15.68;;
30677;SDS011;17437;47.188;8.896;2023-05-21T03:36:08;18.80;;;15.35;;
30677;SDS011;17437;47.188;8.896;2023-05-21T03:38:39;19.73;;;14.55;;
30677;SDS011;17437;47.188;8.896;2023-05-21T03:41:11;17.32;;;15.45;;
30677;SDS011;17437;47.188;8.896;2023-05-21T03:43:42;20.08;;;15.63;;
30677;SDS011;17437;47.188;8.896;2023-05-21T03:46:14;16.35;;;13.93;;
30677;SDS011;17437;47.188;8.896;2023-05-21T03:48:45;22.95;;;14.68;;
30677;SDS011;17437;47.188;8.896;2023-05-21T03:51:17;18.25;;;14.35;;
30677;SDS011;17437;47.188;8.896;2023-05-21T03:53:49;19.42;;;15.53;;
30677;SDS011;17437;47.188;8.896;2023-05-21T03:56:20;19.30;;;15.15;;
30677;SDS011;17437;47.188;8.896;2023-05-21T03:58:52;19.62;;;15.40;;
30677;SDS011;17437;47.188;8.896;2023-05-21T04:01:23;21.27;;;17.23;;
30677;SDS011;17437;47.188;8.896;2023-05-21T04:03:56;19.90;;;16.12;;
30677;SDS011;17437;47.188;8.896;2023-05-21T04:06:28;19.30;;;14.30;;
30677;SDS011;17437;47.188;8.896;2023-05-21T04:08:59;19.32;;;15.08;;
30677;SDS011;17437;47.188;8.896;2023-05-21T04:11:32;18.05;;;13.78;;
30677;SDS011;17437;47.188;8.896;2023-05-21T04:14:04;30.45;;;15.13;;
30677;SDS011;17437;47.188;8.896;2023-05-21T04:16:36;16.70;;;13.30;;
30677;SDS011;17437;47.188;8.896;2023-05-21T04:19:10;16.70;;;12.03;;
30677;SDS011;17437;47.188;8.896;2023-05-21T04:21:41;16.55;;;11.70;;
30677;SDS011;17437;47.188;8.896;2023-05-21T04:24:14;14.68;;;12.03;;
30677;SDS011;17437;47.188;8.896;2023-05-21T04:26:45;15.70;;;12.90;;
30677;SDS011;17437;47.188;8.896;2023-05-21T04:29:17;13.68;;;11.75;;
30677;SDS011;17437;47.188;8.896;2023-05-21T04:31:49;16.45;;;12.63;;
30677;SDS011;17437;47.188;8.896;2023-05-21T04:34:21;17.17;;;12.68;;
30677;SDS011;17437;47.188;8.896;2023-05-21T04:36:52;17.80;;;12.80;;
30677;SDS011;17437;47.188;8.896;2023-05-21T04:39:25;16.60;;;12.73;;
30677;SDS011;17437;47.188;8.896;2023-05-21T04:41:57;19.32;;;12.63;;
30677;SDS011;17437;47.188;8.896;2023-05-21T04:49:56;13.38;;;10.98;;
30677;SDS011;17437;47.188;8.896;2023-05-21T04:52:28;14.87;;;10.00;;
30677;SDS011;17437;47.188;8.896;2023-05-21T04:55:00;15.45;;;10.98;;
30677;SDS011;17437;47.188;8.896;2023-05-21T04:57:31;11.68;;;8.38;;
30677;SDS011;17437;47.188;8.896;2023-05-21T05:00:06;10.85;;;8.98;;
30677;SDS011;17437;47.188;8.896;2023-05-21T05:02:39;14.87;;;10.23;;
30677;SDS011;17437;47.188;8.896;2023-05-21T05:05:11;9.95;;;8.33;;
30677;SDS011;17437;47.188;8.896;2023-05-21T05:07:42;9.93;;;8.90;;
30677;SDS011;17437;47.188;8.896;2023-05-21T05:10:14;11.55;;;9.73;;
30677;SDS011;17437;47.188;8.896;2023-05-21T05:12:45;16.07;;;10.08;;
30677;SDS011;17437;47.188;8.896;2023-05-21T05:15:18;11.55;;;8.88;;
30677;SDS011;17437;47.188;8.896;2023-05-21T05:17:49;12.35;;;9.35;;
30677;SDS011;17437;47.188;8.896;2023-05-21T05:20:22;11.05;;;8.95;;
30677;SDS011;17437;47.188;8.896;2023-05-21T05:22:57;10.63;;;9.53;;
30677;SDS011;17437;47.188;8.896;2023-05-21T05:25:29;11.57;;;8.55;;
30677;SDS011;17437;47.188;8.896;2023-05-21T05:28:01;18.32;;;8.73;;
30677;SDS011;17437;47.188;8.896;2023-05-21T05:30:33;12.55;;;8.88;;
30677;SDS011;17437;47.188;8.896;2023-05-21T05:33:05;11.18;;;9.15;;
30677;SDS011;17437;47.188;8.896;2023-05-21T05:35:37;11.12;;;9.50;;
30677;SDS011;17437;47.188;8.896;2023-05-21T05:38:08;8.63;;;7.83;;
30677;SDS011;17437;47.188;8.896;2023-05-21T05:40:41;13.85;;;10.10;;
30677;SDS011;17437;47.188;8.896;2023-05-21T05:43:13;11.18;;;9.48;;
30677;SDS011;17437;47.188;8.896;2023-05-21T05:45:44;12.98;;;9.93;;
30677;SDS011;17437;47.188;8.896;2023-05-21T05:48:16;10.48;;;9.28;;
30677;SDS011;17437;47.188;8.896;2023-05-21T05:50:48;9.60;;;8.60;;
30677;SDS011;17437;47.188;8.896;2023-05-21T05:53:21;10.90;;;8.63;;
30677;SDS011;17437;47.188;8.896;2023-05-21T05:55:53;10.13;;;8.93;;
30677;SDS011;17437;47.188;8.896;2023-05-21T05:58:25;14.13;;;11.30;;
30677;SDS011;17437;47.188;8.896;2023-05-21T06:00:56;13.25;;;10.65;;
30677;SDS011;17437;47.188;8.896;2023-05-21T06:03:28;14.28;;;10.35;;
30677;SDS011;17437;47.188;8.896;2023-05-21T06:06:00;13.65;;;11.35;;
30677;SDS011;17437;47.188;8.896;2023-05-21T06:08:33;11.97;;;10.70;;
30677;SDS011;17437;47.188;8.896;2023-05-21T06:11:06;13.95;;;11.08;;
30677;SDS011;17437;47.188;8.896;2023-05-21T06:13:38;11.80;;;10.18;;
30677;SDS011;17437;47.188;8.896;2023-05-21T06:16:10;14.28;;;9.80;;
30677;SDS011;17437;47.188;8.896;2023-05-21T06:18:43;12.28;;;10.88;;
30677;SDS011;17437;47.188;8.896;2023-05-21T06:21:15;12.75;;;11.28;;
30677;SDS011;17437;47.188;8.896;2023-05-21T06:23:48;14.45;;;12.70;;
30677;SDS011;17437;47.188;8.896;2023-05-21T06:26:19;12.82;;;10.68;;
30677;SDS011;17437;47.188;8.896;2023-05-21T06:28:51;15.05;;;10.63;;
30677;SDS011;17437;47.188;8.896;2023-05-21T06:31:23;13.00;;;10.58;;
30677;SDS011;17437;47.188;8.896;2023-05-21T06:33:56;11.65;;;10.05;;
30677;SDS011;17437;47.188;8.896;2023-05-21T06:36:28;12.95;;;10.78;;
30677;SDS011;17437;47.188;8.896;2023-05-21T06:39:00;11.08;;;9.95;;
30677;SDS011;17437;47.188;8.896;2023-05-21T06:41:32;12.70;;;10.85;;
30677;SDS011;17437;47.188;8.896;2023-05-21T06:44:04;12.35;;;10.30;;
30677;SDS011;17437;47.188;8.896;2023-05-21T06:46:35;11.95;;;10.72;;
30677;SDS011;17437;47.188;8.896;2023-05-21T06:49:07;14.28;;;12.25;;
30677;SDS011;17437;47.188;8.896;2023-05-21T06:51:41;12.35;;;10.70;;
30677;SDS011;17437;47.188;8.896;2023-05-21T06:54:13;15.15;;;12.13;;
30677;SDS011;17437;47.188;8.896;2023-05-21T06:56:44;12.37;;;11.08;;
30677;SDS011;17437;47.188;8.896;2023-05-21T06:59:16;14.23;;;11.45;;
30677;SDS011;17437;47.188;8.896;2023-05-21T07:01:47;16.90;;;12.20;;
30677;SDS011;17437;47.188;8.896;2023-05-21T07:04:19;14.80;;;12.00;;
30677;SDS011;17437;47.188;8.896;2023-05-21T07:06:52;14.35;;;12.55;;
30677;SDS011;17437;47.188;8.896;2023-05-21T07:09:24;18.50;;;13.13;;
30677;SDS011;17437;47.188;8.896;2023-05-21T07:11:56;18.67;;;13.08;;
30677;SDS011;17437;47.188;8.896;2023-05-21T07:14:29;15.13;;;13.43;;
30677;SDS011;17437;47.188;8.896;2023-05-21T07:17:00;14.50;;;12.50;;
30677;SDS011;17437;47.188;8.896;2023-05-21T07:19:33;15.48;;;12.85;;
30677;SDS011;17437;47.188;8.896;2023-05-21T07:22:06;14.18;;;12.28;;
30677;SDS011;17437;47.188;8.896;2023-05-21T07:24:37;13.28;;;11.83;;
30677;SDS011;17437;47.188;8.896;2023-05-21T07:27:09;18.00;;;15.53;;
30677;SDS011;17437;47.188;8.896;2023-05-21T07:29:42;17.90;;;14.65;;
30677;SDS011;17437;47.188;8.896;2023-05-21T07:32:14;15.60;;;13.22;;
30677;SDS011;17437;47.188;8.896;2023-05-21T07:34:45;16.85;;;12.93;;
30677;SDS011;17437;47.188;8.896;2023-05-21T07:37:18;16.75;;;13.93;;
30677;SDS011;17437;47.188;8.896;2023-05-21T07:39:49;21.73;;;15.45;;
30677;SDS011;17437;47.188;8.896;2023-05-21T07:42:21;17.20;;;15.40;;
30677;SDS011;17437;47.188;8.896;2023-05-21T07:44:53;18.80;;;15.15;;
30677;SDS011;17437;47.188;8.896;2023-05-21T07:47:24;17.27;;;15.48;;
30677;SDS011;17437;47.188;8.896;2023-05-21T07:49:56;20.23;;;15.93;;
30677;SDS011;17437;47.188;8.896;2023-05-21T07:52:27;17.87;;;15.72;;
30677;SDS011;17437;47.188;8.896;2023-05-21T07:55:00;16.30;;;13.65;;
30677;SDS011;17437;47.188;8.896;2023-05-21T07:57:32;17.00;;;15.30;;
30677;SDS011;17437;47.188;8.896;2023-05-21T08:00:06;18.23;;;14.70;;
30677;SDS011;17437;47.188;8.896;2023-05-21T08:02:39;16.25;;;13.93;;
30677;SDS011;17437;47.188;8.896;2023-05-21T08:05:11;19.25;;;15.88;;
30677;SDS011;17437;47.188;8.896;2023-05-21T08:07:44;14.58;;;12.98;;
30677;SDS011;17437;47.188;8.896;2023-05-21T08:10:19;14.83;;;12.93;;
30677;SDS011;17437;47.188;8.896;2023-05-21T08:12:50;15.43;;;13.45;;
30677;SDS011;17437;47.188;8.896;2023-05-21T08:15:25;15.13;;;13.50;;
30677;SDS011;17437;47.188;8.896;2023-05-21T08:17:57;14.40;;;12.07;;
30677;SDS011;17437;47.188;8.896;2023-05-21T08:20:29;11.75;;;10.28;;
30677;SDS011;17437;47.188;8.896;2023-05-21T08:23:01;14.07;;;10.75;;
30677;SDS011;17437;47.188;8.896;2023-05-21T08:25:33;12.43;;;10.13;;
30677;SDS011;17437;47.188;8.896;2023-05-21T08:28:05;9.98;;;8.63;;
30677;SDS011;17437;47.188;8.896;2023-05-21T08:30:37;10.38;;;9.00;;
30677;SDS011;17437;47.188;8.896;2023-05-21T08:33:09;11.03;;;8.98;;
30677;SDS011;17437;47.188;8.896;2023-05-21T08:35:40;18.45;;;14.33;;
30677;SDS011;17437;47.188;8.896;2023-05-21T08:38:12;11.85;;;10.55;;
30677;SDS011;17437;47.188;8.896;2023-05-21T08:40:45;11.00;;;8.03;;
30677;SDS011;17437;47.188;8.896;2023-05-21T08:43:19;8.53;;;7.20;;
30677;SDS011;17437;47.188;8.896;2023-05-21T08:45:51;8.85;;;7.05;;
30677;SDS011;17437;47.188;8.896;2023-05-21T08:48:24;9.18;;;7.40;;
30677;SDS011;17437;47.188;8.896;2023-05-21T08:50:57;11.33;;;8.48;;
30677;SDS011;17437;47.188;8.896;2023-05-21T08:53:29;8.75;;;7.70;;
30677;SDS011;17437;47.188;8.896;2023-05-21T08:56:03;11.00;;;8.78;;
30677;SDS011;17437;47.188;8.896;2023-05-21T08:58:35;9.43;;;6.70;;
30677;SDS011;17437;47.188;8.896;2023-05-21T09:01:10;8.85;;;7.37;;
30677;SDS011;17437;47.188;8.896;2023-05-21T09:03:42;10.90;;;9.28;;
30677;SDS011;17437;47.188;8.896;2023-05-21T09:06:14;10.10;;;8.15;;
30677;SDS011;17437;47.188;8.896;2023-05-21T09:08:48;7.37;;;6.62;;
30677;SDS011;17437;47.188;8.896;2023-05-21T09:11:21;7.10;;;6.15;;
30677;SDS011;17437;47.188;8.896;2023-05-21T09:13:54;6.92;;;5.60;;
30677;SDS011;17437;47.188;8.896;2023-05-21T09:16:27;38.00;;;26.52;;
30677;SDS011;17437;47.188;8.896;2023-05-21T09:18:59;8.43;;;7.45;;
30677;SDS011;17437;47.188;8.896;2023-05-21T09:21:32;8.38;;;7.67;;
30677;SDS011;17437;47.188;8.896;2023-05-21T09:24:05;8.40;;;7.47;;
30677;SDS011;17437;47.188;8.896;2023-05-21T09:26:41;8.23;;;7.42;;
30677;SDS011;17437;47.188;8.896;2023-05-21T09:29:13;6.87;;;6.17;;
30677;SDS011;17437;47.188;8.896;2023-05-21T09:31:44;7.22;;;6.53;;
30677;SDS011;17437;47.188;8.896;2023-05-21T09:34:16;8.53;;;7.25;;
30677;SDS011;17437;47.188;8.896;2023-05-21T09:36:48;9.05;;;6.67;;
30677;SDS011;17437;47.188;8.896;2023-05-21T09:39:29;6.30;;;5.75;;
30677;SDS011;17437;47.188;8.896;2023-05-21T09:42:01;6.80;;;6.20;;
30677;SDS011;17437;47.188;8.896;2023-05-21T09:44:33;6.62;;;5.45;;
30677;SDS011;17437;47.188;8.896;2023-05-21T09:47:05;7.25;;;5.75;;
30677;SDS011;17437;47.188;8.896;2023-05-21T09:49:38;8.25;;;5.80;;
30677;SDS011;17437;47.188;8.896;2023-05-21T09:52:11;8.55;;;7.25;;
30677;SDS011;17437;47.188;8.896;2023-05-21T09:54:43;7.28;;;6.58;;
30677;SDS011;17437;47.188;8.896;2023-05-21T09:57:15;5.90;;;5.00;;
30677;SDS011;17437;47.188;8.896;2023-05-21T09:59:49;5.87;;;5.37;;
30677;SDS011;17437;47.188;8.896;2023-05-21T10:02:22;10.30;;;5.67;;
30677;SDS011;17437;47.188;8.896;2023-05-21T10:04:58;6.00;;;5.40;;
30677;SDS011;17437;47.188;8.896;2023-05-21T10:07:31;6.47;;;5.00;;
30677;SDS011;17437;47.188;8.896;2023-05-21T10:10:07;5.60;;;5.00;;
30677;SDS011;17437;47.188;8.896;2023-05-21T10:12:43;4.90;;;4.50;;
30677;SDS011;17437;47.188;8.896;2023-05-21T10:15:16;6.03;;;5.45;;
30677;SDS011;17437;47.188;8.896;2023-05-21T10:17:53;6.08;;;5.20;;
30677;SDS011;17437;47.188;8.896;2023-05-21T10:20:27;5.95;;;5.35;;
30677;SDS011;17437;47.188;8.896;2023-05-21T10:22:59;5.00;;;4.60;;
30677;SDS011;17437;47.188;8.896;2023-05-21T10:25:32;8.00;;;4.55;;
30677;SDS011;17437;47.188;8.896;2023-05-21T10:28:04;6.95;;;4.75;;
30677;SDS011;17437;47.188;8.896;2023-05-21T10:30:36;5.60;;;5.00;;
30677;SDS011;17437;47.188;8.896;2023-05-21T10:33:08;4.65;;;4.20;;
30677;SDS011;17437;47.188;8.896;2023-05-21T10:35:42;5.83;;;5.22;;
30677;SDS011;17437;47.188;8.896;2023-05-21T10:38:16;6.58;;;4.40;;
30677;SDS011;17437;47.188;8.896;2023-05-21T10:40:49;4.40;;;3.90;;
30677;SDS011;17437;47.188;8.896;2023-05-21T10:46:25;7.42;;;4.65;;
30677;SDS011;17437;47.188;8.896;2023-05-21T10:49:11;6.50;;;5.37;;
30677;SDS011;17437;47.188;8.896;2023-05-21T10:51:53;4.83;;;4.33;;
30677;SDS011;17437;47.188;8.896;2023-05-21T10:54:36;6.87;;;4.87;;
30677;SDS011;17437;47.188;8.896;2023-05-21T11:00:35;5.50;;;4.47;;
30677;SDS011;17437;47.188;8.896;2023-05-21T11:03:08;7.53;;;5.40;;
30677;SDS011;17437;47.188;8.896;2023-05-21T11:05:51;3.30;;;2.85;;
30677;SDS011;17437;47.188;8.896;2023-05-21T11:08:24;4.15;;;3.75;;
30677;SDS011;17437;47.188;8.896;2023-05-21T11:10:58;4.85;;;4.03;;
30677;SDS011;17437;47.188;8.896;2023-05-21T11:13:44;3.90;;;3.47;;
30677;SDS011;17437;47.188;8.896;2023-05-21T11:16:17;47.13;;;36.70;;
30677;SDS011;17437;47.188;8.896;2023-05-21T11:18:57;6.10;;;5.03;;
30677;SDS011;17437;47.188;8.896;2023-05-21T11:21:35;4.37;;;3.95;;
30677;SDS011;17437;47.188;8.896;2023-05-21T11:24:09;4.30;;;3.85;;
30677;SDS011;17437;47.188;8.896;2023-05-21T11:27:00;5.08;;;3.98;;
30677;SDS011;17437;47.188;8.896;2023-05-21T11:29:36;5.42;;;3.75;;
30677;SDS011;17437;47.188;8.896;2023-05-21T11:32:13;4.53;;;4.12;;
30677;SDS011;17437;47.188;8.896;2023-05-21T11:34:47;5.40;;;4.90;;
30677;SDS011;17437;47.188;8.896;2023-05-21T11:37:23;6.08;;;5.47;;
30677;SDS011;17437;47.188;8.896;2023-05-21T11:40:14;16.90;;;7.67;;
30677;SDS011;17437;47.188;8.896;2023-05-21T11:42:51;7.90;;;6.50;;
30677;SDS011;17437;47.188;8.896;2023-05-21T11:45:26;7.75;;;6.87;;
30677;SDS011;17437;47.188;8.896;2023-05-21T11:48:01;9.80;;;7.92;;
30677;SDS011;17437;47.188;8.896;2023-05-21T11:50:35;11.75;;;8.35;;
30677;SDS011;17437;47.188;8.896;2023-05-21T11:53:07;9.68;;;8.68;;
30677;SDS011;17437;47.188;8.896;2023-05-21T11:58:30;10.58;;;8.00;;
30677;SDS011;17437;47.188;8.896;2023-05-21T12:01:02;9.63;;;8.63;;
30677;SDS011;17437;47.188;8.896;2023-05-21T12:03:34;9.85;;;8.85;;
30677;SDS011;17437;47.188;8.896;2023-05-21T12:06:06;9.65;;;8.75;;
30677;SDS011;17437;47.188;8.896;2023-05-21T12:08:38;9.10;;;7.45;;
30677;SDS011;17437;47.188;8.896;2023-05-21T12:11:10;9.53;;;7.33;;
30677;SDS011;17437;47.188;8.896;2023-05-21T12:13:41;7.70;;;6.00;;
30677;SDS011;17437;47.188;8.896;2023-05-21T12:16:15;8.33;;;7.12;;
30677;SDS011;17437;47.188;8.896;2023-05-21T12:18:46;8.50;;;7.70;;
30677;SDS011;17437;47.188;8.896;2023-05-21T12:21:20;7.62;;;6.47;;
30677;SDS011;17437;47.188;8.896;2023-05-21T12:23:51;8.18;;;7.37;;
30677;SDS011;17437;47.188;8.896;2023-05-21T12:26:23;8.83;;;7.33;;
30677;SDS011;17437;47.188;8.896;2023-05-21T12:28:55;10.53;;;7.30;;
30677;SDS011;17437;47.188;8.896;2023-05-21T12:31:28;7.20;;;6.50;;
30677;SDS011;17437;47.188;8.896;2023-05-21T12:34:01;9.43;;;6.28;;
30677;SDS011;17437;47.188;8.896;2023-05-21T12:36:33;8.75;;;7.30;;
30677;SDS011;17437;47.188;8.896;2023-05-21T12:39:08;7.53;;;6.78;;
30677;SDS011;17437;47.188;8.896;2023-05-21T12:41:40;7.72;;;7.00;;
30677;SDS011;17437;47.188;8.896;2023-05-21T12:44:12;6.83;;;6.12;;
30677;SDS011;17437;47.188;8.896;2023-05-21T12:46:44;7.60;;;6.75;;
30677;SDS011;17437;47.188;8.896;2023-05-21T12:49:30;7.65;;;6.83;;
30677;SDS011;17437;47.188;8.896;2023-05-21T12:52:06;12.13;;;9.13;;
30677;SDS011;17437;47.188;8.896;2023-05-21T12:54:40;10.63;;;6.45;;
30677;SDS011;17437;47.188;8.896;2023-05-21T12:57:14;7.47;;;6.75;;
30677;SDS011;17437;47.188;8.896;2023-05-21T12:59:48;6.75;;;6.17;;
30677;SDS011;17437;47.188;8.896;2023-05-21T13:02:23;7.12;;;6.42;;
30677;SDS011;17437;47.188;8.896;2023-05-21T13:04:56;10.88;;;6.62;;
30677;SDS011;17437;47.188;8.896;2023-05-21T13:07:31;13.78;;;8.25;;
30677;SDS011;17437;47.188;8.896;2023-05-21T13:10:06;7.35;;;6.60;;
30677;SDS011;17437;47.188;8.896;2023-05-21T13:12:40;8.35;;;7.55;;
30677;SDS011;17437;47.188;8.896;2023-05-21T13:15:13;8.50;;;7.62;;
30677;SDS011;17437;47.188;8.896;2023-05-21T13:17:50;6.30;;;5.67;;
30677;SDS011;17437;47.188;8.896;2023-05-21T13:20:30;8.43;;;7.45;;
30677;SDS011;17437;47.188;8.896;2023-05-21T13:23:01;8.53;;;7.75;;
30677;SDS011;17437;47.188;8.896;2023-05-21T13:25:35;7.83;;;7.10;;
30677;SDS011;17437;47.188;8.896;2023-05-21T13:28:07;11.65;;;9.45;;
30677;SDS011;17437;47.188;8.896;2023-05-21T13:30:40;14.28;;;7.03;;
30677;SDS011;17437;47.188;8.896;2023-05-21T13:33:12;8.83;;;6.90;;
30677;SDS011;17437;47.188;8.896;2023-05-21T13:35:44;8.70;;;7.78;;
30677;SDS011;17437;47.188;8.896;2023-05-21T13:38:17;7.87;;;6.97;;
30677;SDS011;17437;47.188;8.896;2023-05-21T13:40:48;7.78;;;6.97;;
30677;SDS011;17437;47.188;8.896;2023-05-21T13:43:20;7.70;;;7.00;;
30677;SDS011;17437;47.188;8.896;2023-05-21T13:45:51;7.60;;;6.87;;
30677;SDS011;17437;47.188;8.896;2023-05-21T13:48:23;7.90;;;7.20;;
30677;SDS011;17437;47.188;8.896;2023-05-21T13:50:55;10.75;;;7.97;;
30677;SDS011;17437;47.188;8.896;2023-05-21T13:53:26;7.83;;;7.03;;
30677;SDS011;17437;47.188;8.896;2023-05-21T13:55:58;7.58;;;6.80;;
30677;SDS011;17437;47.188;8.896;2023-05-21T13:58:30;8.08;;;6.60;;
30677;SDS011;17437;47.188;8.896;2023-05-21T14:01:03;9.20;;;8.33;;
30677;SDS011;17437;47.188;8.896;2023-05-21T14:03:34;7.30;;;5.85;;
30677;SDS011;17437;47.188;8.896;2023-05-21T14:06:06;7.92;;;7.08;;
30677;SDS011;17437;47.188;8.896;2023-05-21T14:08:39;7.60;;;6.87;;
30677;SDS011;17437;47.188;8.896;2023-05-21T14:11:11;9.30;;;7.33;;
30677;SDS011;17437;47.188;8.896;2023-05-21T14:13:48;8.95;;;7.42;;
30677;SDS011;17437;47.188;8.896;2023-05-21T14:16:19;6.97;;;6.28;;
30677;SDS011;17437;47.188;8.896;2023-05-21T14:18:58;9.18;;;6.95;;
30677;SDS011;17437;47.188;8.896;2023-05-21T14:21:30;7.65;;;7.03;;
30677;SDS011;17437;47.188;8.896;2023-05-21T14:24:02;8.13;;;6.87;;
30677;SDS011;17437;47.188;8.896;2023-05-21T14:26:38;6.83;;;6.20;;
30677;SDS011;17437;47.188;8.896;2023-05-21T14:29:10;7.90;;;6.65;;
30677;SDS011;17437;47.188;8.896;2023-05-21T14:31:42;6.50;;;5.90;;
30677;SDS011;17437;47.188;8.896;2023-05-21T14:34:16;8.48;;;5.80;;
30677;SDS011;17437;47.188;8.896;2023-05-21T14:36:48;7.22;;;6.53;;
30677;SDS011;17437;47.188;8.896;2023-05-21T14:39:20;7.22;;;6.55;;
30677;SDS011;17437;47.188;8.896;2023-05-21T14:41:52;6.58;;;5.92;;
30677;SDS011;17437;47.188;8.896;2023-05-21T14:44:24;7.65;;;6.25;;
30677;SDS011;17437;47.188;8.896;2023-05-21T14:46:56;8.73;;;7.70;;
30677;SDS011;17437;47.188;8.896;2023-05-21T14:49:27;6.90;;;6.20;;
30677;SDS011;17437;47.188;8.896;2023-05-21T14:52:00;6.28;;;5.60;;
30677;SDS011;17437;47.188;8.896;2023-05-21T14:54:34;5.25;;;4.67;;
30677;SDS011;17437;47.188;8.896;2023-05-21T14:57:07;8.60;;;5.92;;
30677;SDS011;17437;47.188;8.896;2023-05-21T14:59:40;7.20;;;6.50;;
30677;SDS011;17437;47.188;8.896;2023-05-21T15:02:12;6.00;;;5.22;;
30677;SDS011;17437;47.188;8.896;2023-05-21T15:04:43;5.50;;;4.92;;
30677;SDS011;17437;47.188;8.896;2023-05-21T15:07:15;5.90;;;5.22;;
30677;SDS011;17437;47.188;8.896;2023-05-21T15:09:47;6.12;;;5.53;;
30677;SDS011;17437;47.188;8.896;2023-05-21T15:12:18;7.10;;;5.47;;
30677;SDS011;17437;47.188;8.896;2023-05-21T15:14:51;6.00;;;5.40;;
30677;SDS011;17437;47.188;8.896;2023-05-21T15:17:23;6.17;;;4.55;;
30677;SDS011;17437;47.188;8.896;2023-05-21T15:19:55;6.28;;;4.80;;